createdAt,value
2023-05-01T00:02:27.574Z,8.73
2023-05-01T00:04:54.871Z,8.55
2023-05-01T00:07:22.086Z,8.88
2023-05-01T00:09:49.351Z,9.05
2023-05-01T00:12:16.536Z,10.52
2023-05-01T00:14:43.754Z,9.55
2023-05-01T00:17:10.846Z,8.68
2023-05-01T00:19:38.017Z,9.45
2023-05-01T00:22:05.099Z,8.80
2023-05-01T00:24:32.307Z,9.25
2023-05-01T00:26:59.594Z,7.97
2023-05-01T00:29:26.742Z,9.35
2023-05-01T00:31:55.342Z,9.30
2023-05-01T00:34:22.736Z,8.63
2023-05-01T00:36:50.091Z,8.80
2023-05-01T00:39:17.558Z,9.32
2023-05-01T00:41:44.672Z,9.43
2023-05-01T00:44:12.171Z,9.18
2023-05-01T00:46:39.401Z,8.95
2023-05-01T00:49:06.670Z,9.52
2023-05-01T00:51:34.435Z,9.48
2023-05-01T00:54:02.178Z,8.63
2023-05-01T00:56:31.543Z,9.52
2023-05-01T00:59:00.017Z,9.18
2023-05-01T01:01:27.224Z,9.32
2023-05-01T01:03:57.545Z,9.45
2023-05-01T01:06:51.569Z,9.52
2023-05-01T01:09:44.363Z,9.27
2023-05-01T01:12:28.128Z,9.52
2023-05-01T01:15:02.779Z,8.55
2023-05-01T01:17:47.187Z,9.20
2023-05-01T01:20:33.196Z,10.10
2023-05-01T01:23:27.923Z,9.35
2023-05-01T01:26:04.010Z,9.25
2023-05-01T01:29:05.212Z,9.07
2023-05-01T01:31:56.499Z,9.52
2023-05-01T01:34:33.361Z,10.43
2023-05-01T01:37:15.461Z,11.07
2023-05-01T01:39:45.165Z,9.82
2023-05-01T01:42:18.718Z,11.43
2023-05-01T01:44:55.213Z,11.75
2023-05-01T01:47:28.678Z,10.95
2023-05-01T01:49:57.535Z,9.98
2023-05-01T01:52:26.909Z,10.48
2023-05-01T01:55:02.150Z,10.95
2023-05-01T01:57:30.428Z,9.70
2023-05-01T01:59:58.756Z,8.80
2023-05-01T02:02:28.007Z,9.02
2023-05-01T02:05:02.761Z,11.23
2023-05-01T02:07:31.146Z,10.45
2023-05-01T02:09:59.730Z,10.05
2023-05-01T02:12:27.649Z,10.63
2023-05-01T02:14:56.672Z,10.68
2023-05-01T02:17:24.530Z,8.40
2023-05-01T02:19:53.670Z,6.60
2023-05-01T02:22:23.133Z,7.65
2023-05-01T02:24:50.552Z,7.55
2023-05-01T02:27:23.636Z,7.97
2023-05-01T02:29:54.617Z,7.75
2023-05-01T02:32:22.912Z,7.32
2023-05-01T02:34:50.323Z,7.07
2023-05-01T02:37:17.969Z,8.55
2023-05-01T02:39:46.762Z,7.10
2023-05-01T02:42:16.858Z,8.13
2023-05-01T02:44:51.391Z,7.80
2023-05-01T02:47:22.638Z,7.32
2023-05-01T02:49:52.076Z,7.88
2023-05-01T02:52:20.159Z,8.20
2023-05-01T02:54:50.849Z,7.63
2023-05-01T02:57:20.570Z,7.90
2023-05-01T02:59:47.968Z,8.32
2023-05-01T03:02:16.216Z,8.52
2023-05-01T03:04:44.263Z,7.35
2023-05-01T03:07:11.577Z,7.40
2023-05-01T03:09:38.819Z,6.88
2023-05-01T03:12:06.281Z,7.55
2023-05-01T03:14:33.767Z,7.72
2023-05-01T03:17:01.187Z,8.18
2023-05-01T03:19:28.506Z,7.78
2023-05-01T03:21:55.748Z,7.10
2023-05-01T03:24:22.885Z,7.25
2023-05-01T03:26:49.981Z,7.63
2023-05-01T03:29:17.244Z,8.75
2023-05-01T03:31:44.601Z,7.93
2023-05-01T03:34:11.965Z,8.15
2023-05-01T03:36:39.293Z,7.50
2023-05-01T03:39:08.893Z,7.78
2023-05-01T03:41:54.692Z,8.55
2023-05-01T03:44:24.992Z,10.27
2023-05-01T03:46:52.220Z,10.93
2023-05-01T03:49:29.162Z,11.43
2023-05-01T03:51:56.971Z,12.20
2023-05-01T03:54:24.871Z,12.23
2023-05-01T03:56:58.963Z,10.60
2023-05-01T03:59:26.254Z,11.13
2023-05-01T04:01:53.578Z,12.30
2023-05-01T04:04:21.459Z,11.25
2023-05-01T04:06:55.510Z,11.35
2023-05-01T04:09:22.740Z,9.55
2023-05-01T04:11:49.828Z,10.05
2023-05-01T04:14:17.064Z,10.75
2023-05-01T04:16:44.974Z,10.70
2023-05-01T04:19:12.045Z,10.85
2023-05-01T04:21:42.783Z,10.98
2023-05-01T04:24:09.933Z,10.93
2023-05-01T04:26:37.149Z,9.75
2023-05-01T04:29:05.053Z,9.85
2023-05-01T04:31:32.165Z,11.43
2023-05-01T04:34:01.979Z,9.90
2023-05-01T04:36:29.990Z,9.32
2023-05-01T04:38:57.607Z,10.60
2023-05-01T04:41:24.869Z,9.55
2023-05-01T04:43:52.837Z,9.63
2023-05-01T04:46:20.046Z,8.07
2023-05-01T04:48:47.765Z,7.97
2023-05-01T04:51:14.861Z,8.75
2023-05-01T04:53:42.184Z,8.15
2023-05-01T04:56:19.019Z,8.48
2023-05-01T04:58:47.569Z,8.05
2023-05-01T05:01:18.534Z,7.95
2023-05-01T05:03:48.975Z,8.38
2023-05-01T05:06:20.404Z,7.40
2023-05-01T05:08:47.544Z,8.05
2023-05-01T05:11:15.403Z,8.00
2023-05-01T05:13:49.705Z,8.95
2023-05-01T05:16:17.781Z,8.48
2023-05-01T05:18:44.976Z,9.38
2023-05-01T05:21:12.241Z,9.98
2023-05-01T05:23:44.773Z,10.15
2023-05-01T05:26:12.108Z,9.85
2023-05-01T05:28:39.530Z,9.98
2023-05-01T05:31:07.815Z,10.10
2023-05-01T05:33:35.571Z,9.98
2023-05-01T05:36:03.421Z,9.07
2023-05-01T05:38:36.102Z,9.82
2023-05-01T05:41:04.913Z,9.00
2023-05-01T05:43:32.701Z,8.82
2023-05-01T05:46:00.301Z,7.28
2023-05-01T05:48:28.449Z,7.43
2023-05-01T05:50:56.413Z,6.97
2023-05-01T05:53:25.870Z,7.82
2023-05-01T05:55:53.944Z,6.93
2023-05-01T05:58:21.640Z,8.27
2023-05-01T06:00:50.709Z,7.45
2023-05-01T06:03:18.555Z,7.68
2023-05-01T06:05:46.272Z,6.78
2023-05-01T06:08:14.732Z,7.00
2023-05-01T06:10:44.038Z,7.03
2023-05-01T06:13:13.982Z,6.68
2023-05-01T06:15:45.634Z,6.78
2023-05-01T06:18:13.457Z,6.95
2023-05-01T06:20:40.785Z,6.55
2023-05-01T06:23:09.839Z,6.63
2023-05-01T06:25:51.850Z,6.72
2023-05-01T06:28:19.899Z,6.45
2023-05-01T06:30:48.084Z,5.95
2023-05-01T06:33:17.339Z,6.65
2023-05-01T06:35:48.936Z,6.57
2023-05-01T06:38:16.614Z,6.68
2023-05-01T06:40:47.495Z,6.57
2023-05-01T06:43:16.764Z,6.05
2023-05-01T06:45:44.188Z,5.93
2023-05-01T06:48:11.891Z,6.50
2023-05-01T06:50:39.126Z,6.32
2023-05-01T06:53:06.208Z,6.47
2023-05-01T06:55:36.218Z,6.00
2023-05-01T06:58:12.733Z,6.15
2023-05-01T07:00:49.553Z,5.60
2023-05-01T07:03:16.750Z,6.20
2023-05-01T07:05:43.929Z,6.60
2023-05-01T07:08:11.471Z,5.93
2023-05-01T07:10:40.554Z,5.70
2023-05-01T07:13:09.770Z,5.47
2023-05-01T07:15:37.554Z,5.70
2023-05-01T07:18:06.458Z,5.78
2023-05-01T07:20:35.006Z,5.18
2023-05-01T07:23:02.216Z,5.03
2023-05-01T07:25:30.252Z,5.30
2023-05-01T07:27:57.465Z,5.60
2023-05-01T07:30:24.867Z,5.35
2023-05-01T07:32:52.031Z,5.80
2023-05-01T07:35:22.106Z,5.38
2023-05-01T07:37:51.980Z,5.65
2023-05-01T07:40:19.418Z,5.05
2023-05-01T07:42:54.427Z,4.93
2023-05-01T07:45:21.964Z,4.75
2023-05-01T07:47:50.240Z,4.95
2023-05-01T07:50:17.503Z,5.22
2023-05-01T07:52:44.938Z,5.60
2023-05-01T07:55:12.155Z,5.82
2023-05-01T07:57:42.250Z,6.30
2023-05-01T08:00:10.055Z,4.40
2023-05-01T08:02:43.795Z,4.55
2023-05-01T08:05:16.623Z,4.60
2023-05-01T08:07:43.851Z,4.28
2023-05-01T08:10:11.332Z,5.03
2023-05-01T08:12:38.700Z,4.75
2023-05-01T08:15:07.675Z,4.88
2023-05-01T08:17:38.203Z,5.03
2023-05-01T08:20:06.188Z,4.75
2023-05-01T08:22:36.099Z,4.18
2023-05-01T08:25:03.249Z,5.45
2023-05-01T08:27:30.750Z,4.28
2023-05-01T08:29:58.222Z,4.82
2023-05-01T08:32:25.880Z,4.50
2023-05-01T08:34:53.183Z,4.20
2023-05-01T08:37:20.355Z,4.68
2023-05-01T08:39:47.444Z,4.43
2023-05-01T08:42:14.645Z,4.97
2023-05-01T08:44:42.682Z,5.53
2023-05-01T08:47:22.323Z,3.75
2023-05-01T08:49:52.848Z,4.22
2023-05-01T08:52:22.552Z,4.35
2023-05-01T08:54:57.211Z,6.03
2023-05-01T08:57:26.198Z,4.85
2023-05-01T08:59:56.773Z,3.92
2023-05-01T09:02:25.121Z,4.90
2023-05-01T09:04:53.535Z,3.58
2023-05-01T09:07:20.708Z,3.80
2023-05-01T09:09:47.847Z,4.22
2023-05-01T09:12:26.681Z,3.67
2023-05-01T09:14:55.323Z,3.80
2023-05-01T09:17:24.291Z,4.13
2023-05-01T09:19:52.474Z,3.10
2023-05-01T09:22:20.606Z,3.45
2023-05-01T09:24:47.720Z,5.03
2023-05-01T09:27:15.470Z,7.15
2023-05-01T09:29:42.553Z,4.18
2023-05-01T09:32:19.578Z,4.20
2023-05-01T09:34:48.696Z,3.90
2023-05-01T09:37:30.309Z,2.70
2023-05-01T09:40:11.939Z,2.80
2023-05-01T09:42:52.416Z,2.42
2023-05-01T09:45:22.224Z,3.72
2023-05-01T09:47:50.323Z,2.45
2023-05-01T09:50:32.444Z,2.45
2023-05-01T09:53:02.075Z,4.53
2023-05-01T09:55:29.358Z,5.13
2023-05-01T09:57:56.860Z,4.07
2023-05-01T10:00:24.058Z,5.15
2023-05-01T10:02:52.597Z,3.67
2023-05-01T10:05:20.172Z,6.20
2023-05-01T10:08:03.146Z,4.18
2023-05-01T10:10:30.702Z,3.83
2023-05-01T10:13:19.419Z,4.38
2023-05-01T10:15:50.483Z,3.47
2023-05-01T10:18:19.094Z,3.58
2023-05-01T10:20:46.773Z,3.20
2023-05-01T10:23:14.601Z,3.22
2023-05-01T10:25:43.052Z,2.83
2023-05-01T10:28:12.184Z,3.65
2023-05-01T10:30:41.544Z,4.13
2023-05-01T10:33:08.832Z,2.92
2023-05-01T10:35:39.600Z,3.90
2023-05-01T10:38:09.870Z,4.07
2023-05-01T10:40:39.996Z,3.65
2023-05-01T10:43:26.678Z,5.22
2023-05-01T10:45:55.992Z,2.83
2023-05-01T10:48:56.508Z,3.60
2023-05-01T10:51:27.872Z,4.25
2023-05-01T10:54:22.806Z,4.95
2023-05-01T10:56:50.526Z,5.65
2023-05-01T10:59:18.088Z,3.38
2023-05-01T11:01:48.694Z,2.70
2023-05-01T11:04:27.883Z,2.90
2023-05-01T11:06:58.186Z,5.45
2023-05-01T11:09:42.725Z,4.20
2023-05-01T11:12:12.654Z,2.10
2023-05-01T11:14:58.293Z,5.03
2023-05-01T11:17:43.886Z,4.32
2023-05-01T11:20:37.201Z,4.50
2023-05-01T11:23:04.726Z,5.43
2023-05-01T11:25:36.197Z,4.72
2023-05-01T11:28:07.283Z,3.78
2023-05-01T11:30:39.075Z,4.15
2023-05-01T11:33:10.200Z,4.53
2023-05-01T11:35:39.385Z,4.07
2023-05-01T11:38:06.466Z,5.13
2023-05-01T11:40:35.264Z,3.53
2023-05-01T11:43:10.402Z,4.65
2023-05-01T11:45:38.225Z,4.43
2023-05-01T11:48:05.711Z,3.63
2023-05-01T11:50:34.487Z,4.25
2023-05-01T11:53:02.399Z,3.42
2023-05-01T11:55:33.659Z,3.20
2023-05-01T11:58:02.589Z,3.28
2023-05-01T12:00:34.078Z,3.47
2023-05-01T12:03:04.395Z,3.95
2023-05-01T12:05:33.419Z,3.40
2023-05-01T12:08:11.759Z,4.85
2023-05-01T12:10:41.198Z,4.13
2023-05-01T12:13:10.081Z,3.30
2023-05-01T12:15:42.569Z,4.07
2023-05-01T12:18:10.134Z,4.25
2023-05-01T12:20:41.678Z,4.10
2023-05-01T12:23:11.815Z,3.75
2023-05-01T12:25:41.103Z,4.65
2023-05-01T12:28:11.317Z,4.55
2023-05-01T12:30:39.370Z,3.75
2023-05-01T12:33:24.239Z,3.75
2023-05-01T12:35:51.754Z,3.33
2023-05-01T12:38:21.030Z,2.88
2023-05-01T12:40:59.710Z,4.05
2023-05-01T12:43:37.508Z,4.00
2023-05-01T12:46:06.149Z,3.20
2023-05-01T12:48:34.520Z,3.03
2023-05-01T12:51:01.948Z,4.90
2023-05-01T12:53:29.979Z,5.13
2023-05-01T12:55:59.006Z,3.42
2023-05-01T12:58:37.265Z,5.55
2023-05-01T13:01:04.950Z,5.03
2023-05-01T13:03:34.032Z,5.78
2023-05-01T13:06:04.433Z,5.57
2023-05-01T13:08:38.017Z,2.35
2023-05-01T13:11:17.278Z,4.30
2023-05-01T13:13:45.833Z,5.32
2023-05-01T13:16:14.881Z,2.00
2023-05-01T13:18:53.708Z,5.43
2023-05-01T13:21:23.016Z,4.43
2023-05-01T13:23:59.067Z,4.80
2023-05-01T13:28:55.701Z,2.25
2023-05-01T13:31:23.273Z,5.43
2023-05-01T13:33:52.455Z,6.05
2023-05-01T13:36:26.163Z,6.43
2023-05-01T13:38:57.154Z,5.47
2023-05-01T13:41:26.835Z,5.40
2023-05-01T13:43:56.451Z,5.47
2023-05-01T13:46:25.623Z,4.45
2023-05-01T13:48:53.667Z,3.40
2023-05-01T13:51:22.968Z,5.38
2023-05-01T13:53:51.443Z,3.53
2023-05-01T13:56:18.791Z,5.13
2023-05-01T13:58:46.893Z,5.13
2023-05-01T14:01:19.193Z,2.80
2023-05-01T14:03:48.133Z,2.97
2023-05-01T14:06:17.180Z,4.82
2023-05-01T14:08:46.603Z,3.33
2023-05-01T14:11:15.034Z,4.40
2023-05-01T14:13:44.312Z,2.67
2023-05-01T14:16:21.666Z,5.43
2023-05-01T14:18:49.025Z,3.28
2023-05-01T14:21:18.157Z,3.15
2023-05-01T14:23:46.432Z,4.25
2023-05-01T14:26:18.802Z,3.33
2023-05-01T14:28:48.552Z,5.07
2023-05-01T14:31:30.570Z,3.35
2023-05-01T14:34:07.472Z,3.42
2023-05-01T14:36:35.131Z,4.70
2023-05-01T14:39:04.304Z,4.95
2023-05-01T14:41:34.939Z,3.28
2023-05-01T14:44:03.984Z,3.50
2023-05-01T14:46:37.709Z,3.65
2023-05-01T14:49:05.172Z,2.90
2023-05-01T14:51:33.836Z,4.30
2023-05-01T14:54:01.751Z,3.40
2023-05-01T14:56:28.936Z,3.80
2023-05-01T14:58:56.167Z,3.33
2023-05-01T15:01:23.390Z,3.47
2023-05-01T15:03:50.847Z,3.50
2023-05-01T15:06:18.086Z,2.50
2023-05-01T15:08:45.983Z,3.50
2023-05-01T15:11:18.312Z,4.22
2023-05-01T15:13:46.398Z,3.75
2023-05-01T15:16:13.619Z,3.30
2023-05-01T15:18:40.896Z,3.65
2023-05-01T15:21:08.229Z,3.83
2023-05-01T15:23:37.256Z,3.10
2023-05-01T15:26:04.492Z,2.95
2023-05-01T15:28:32.494Z,3.70
2023-05-01T15:30:59.580Z,3.85
2023-05-01T15:33:26.757Z,2.80
2023-05-01T15:35:54.298Z,2.92
2023-05-01T15:38:22.025Z,3.95
2023-05-01T15:40:50.354Z,3.03
2023-05-01T15:43:17.545Z,3.03
2023-05-01T15:45:45.124Z,2.95
2023-05-01T15:48:12.407Z,3.15
2023-05-01T15:50:39.643Z,3.03
2023-05-01T15:53:06.732Z,3.35
2023-05-01T15:55:35.033Z,3.00
2023-05-01T15:58:03.097Z,2.83
2023-05-01T16:00:30.307Z,3.42
2023-05-01T16:02:57.554Z,3.40
2023-05-01T16:05:25.173Z,3.10
2023-05-01T16:07:55.746Z,3.78
2023-05-01T16:10:23.591Z,3.50
2023-05-01T16:12:53.756Z,3.25
2023-05-01T16:15:22.368Z,4.68
2023-05-01T16:17:51.648Z,3.70
2023-05-01T16:20:19.193Z,3.80
2023-05-01T16:22:46.511Z,5.80
2023-05-01T16:25:14.482Z,4.55
2023-05-01T16:27:44.688Z,4.72
2023-05-01T16:30:16.386Z,5.25
2023-05-01T16:32:45.171Z,6.47
2023-05-01T16:35:18.068Z,5.93
2023-05-01T16:37:45.367Z,4.38
2023-05-01T16:40:17.212Z,4.53
2023-05-01T16:42:54.842Z,4.80
2023-05-01T16:45:22.204Z,4.65
2023-05-01T16:47:49.489Z,3.80
2023-05-01T16:50:25.318Z,4.55
2023-05-01T16:52:55.182Z,3.73
2023-05-01T16:55:23.657Z,4.35
2023-05-01T16:57:51.314Z,3.83
2023-05-01T17:00:18.953Z,4.00
2023-05-01T17:02:49.368Z,4.47
2023-05-01T17:05:16.929Z,4.30
2023-05-01T17:07:44.035Z,3.40
2023-05-01T17:10:11.829Z,4.10
2023-05-01T17:12:39.049Z,4.25
2023-05-01T17:15:07.080Z,4.53
2023-05-01T17:17:34.395Z,3.95
2023-05-01T17:20:01.932Z,5.05
2023-05-01T17:22:29.534Z,4.60
2023-05-01T17:24:57.602Z,3.97
2023-05-01T17:27:24.893Z,5.00
2023-05-01T17:29:52.163Z,4.15
2023-05-01T17:32:29.566Z,4.65
2023-05-01T17:35:04.989Z,4.10
2023-05-01T17:37:32.578Z,3.88
2023-05-01T17:39:59.996Z,3.60
2023-05-01T17:42:27.536Z,3.60
2023-05-01T17:44:54.631Z,3.67
2023-05-01T17:47:23.754Z,4.20
2023-05-01T17:49:53.039Z,3.70
2023-05-01T17:52:20.336Z,4.20
2023-05-01T17:54:47.540Z,4.88
2023-05-01T17:57:14.839Z,4.90
2023-05-01T17:59:42.076Z,5.35
2023-05-01T18:02:09.349Z,4.05
2023-05-01T18:04:38.757Z,3.83
2023-05-01T18:07:06.992Z,4.43
2023-05-01T18:09:34.950Z,4.85
2023-05-01T18:12:02.571Z,4.00
2023-05-01T18:14:30.446Z,4.20
2023-05-01T18:16:57.758Z,3.95
2023-05-01T18:19:25.040Z,3.50
2023-05-01T18:21:52.195Z,3.33
2023-05-01T18:24:19.328Z,4.50
2023-05-01T18:26:46.554Z,3.15
2023-05-01T18:29:13.904Z,3.20
2023-05-01T18:31:41.104Z,3.25
2023-05-01T18:34:10.422Z,3.63
2023-05-01T18:36:37.673Z,4.50
2023-05-01T18:39:04.897Z,3.85
2023-05-01T18:41:31.969Z,4.35
2023-05-01T18:44:01.633Z,4.05
2023-05-01T18:46:28.867Z,2.60
2023-05-01T18:48:56.218Z,4.07
2023-05-01T18:51:23.728Z,2.90
2023-05-01T18:53:50.908Z,2.97
2023-05-01T18:56:19.078Z,2.58
2023-05-01T18:58:46.222Z,3.78
2023-05-01T19:01:13.398Z,3.75
2023-05-01T19:03:40.784Z,3.80
2023-05-01T19:06:10.807Z,3.05
2023-05-01T19:08:38.208Z,2.92
2023-05-01T19:11:06.275Z,2.63
2023-05-01T19:13:34.153Z,3.08
2023-05-01T19:16:01.382Z,2.95
2023-05-01T19:18:28.846Z,2.75
2023-05-01T19:20:56.268Z,2.42
2023-05-01T19:23:23.683Z,2.42
2023-05-01T19:25:51.388Z,4.00
2023-05-01T19:28:18.590Z,3.58
2023-05-01T19:30:46.074Z,2.60
2023-05-01T19:33:13.472Z,3.08
2023-05-01T19:35:41.200Z,3.10
2023-05-01T19:38:08.348Z,3.33
2023-05-01T19:40:36.945Z,3.13
2023-05-01T19:43:04.120Z,3.35
2023-05-01T19:45:31.692Z,3.22
2023-05-01T19:47:59.196Z,3.60
2023-05-01T19:50:26.752Z,3.03
2023-05-01T19:52:53.820Z,3.63
2023-05-01T19:55:21.252Z,3.63
2023-05-01T19:57:48.408Z,3.25
2023-05-01T20:00:16.201Z,3.08
2023-05-01T20:02:43.468Z,2.70
2023-05-01T20:05:11.351Z,2.90
2023-05-01T20:07:38.466Z,3.63
2023-05-01T20:10:06.479Z,3.92
2023-05-01T20:12:34.340Z,3.40
2023-05-01T20:15:01.902Z,3.13
2023-05-01T20:17:29.700Z,2.85
2023-05-01T20:19:57.914Z,3.30
2023-05-01T20:22:31.532Z,3.08
2023-05-01T20:24:59.189Z,3.03
2023-05-01T20:27:26.736Z,3.47
2023-05-01T20:29:54.492Z,3.08
2023-05-01T20:32:21.790Z,3.65
2023-05-01T20:34:49.126Z,3.20
2023-05-01T20:37:16.781Z,3.05
2023-05-01T20:39:44.548Z,3.13
2023-05-01T20:42:11.691Z,2.97
2023-05-01T20:44:40.168Z,3.35
2023-05-01T20:47:07.509Z,3.17
2023-05-01T20:49:35.242Z,3.58
2023-05-01T20:52:02.660Z,3.50
2023-05-01T20:54:32.842Z,3.63
2023-05-01T20:57:00.602Z,3.20
2023-05-01T20:59:27.865Z,3.30
2023-05-01T21:01:55.964Z,3.47
2023-05-01T21:04:24.056Z,3.28
2023-05-01T21:06:52.807Z,3.17
2023-05-01T21:09:20.022Z,3.67
2023-05-01T21:11:47.559Z,3.47
2023-05-01T21:14:14.854Z,3.30
2023-05-01T21:16:43.177Z,3.90
2023-05-01T21:19:12.335Z,3.88
2023-05-01T21:21:39.638Z,3.47
2023-05-01T21:24:09.802Z,3.72
2023-05-01T21:26:37.770Z,3.53
2023-05-01T21:29:04.973Z,4.30
2023-05-01T21:31:33.357Z,3.75
2023-05-01T21:34:05.272Z,3.42
2023-05-01T21:36:32.840Z,3.80
2023-05-01T21:39:03.133Z,4.18
2023-05-01T21:41:30.910Z,3.33
2023-05-01T21:43:58.031Z,3.10
2023-05-01T21:46:27.574Z,2.97
2023-05-01T21:48:54.742Z,3.35
2023-05-01T21:51:33.440Z,3.00
2023-05-01T21:54:01.902Z,3.35
2023-05-01T21:56:29.623Z,3.72
2023-05-01T21:59:02.305Z,3.60
2023-05-01T22:01:30.293Z,3.30
2023-05-01T22:03:57.557Z,3.55
2023-05-01T22:06:25.844Z,3.53
2023-05-01T22:08:53.774Z,3.50
2023-05-01T22:11:24.719Z,3.88
2023-05-01T22:13:51.992Z,3.53
2023-05-01T22:16:19.457Z,3.80
2023-05-01T22:18:49.380Z,3.33
2023-05-01T22:21:17.342Z,3.58
2023-05-01T22:23:44.521Z,3.35
2023-05-01T22:26:11.607Z,4.00
2023-05-01T22:28:38.718Z,3.63
2023-05-01T22:31:06.059Z,3.28
2023-05-01T22:33:33.428Z,3.80
2023-05-01T22:36:00.607Z,3.58
2023-05-01T22:38:27.681Z,3.97
2023-05-01T22:40:54.783Z,4.07
2023-05-01T22:43:22.107Z,3.75
2023-05-01T22:45:49.249Z,3.83
2023-05-01T22:48:16.662Z,4.22
2023-05-01T22:50:44.356Z,3.80
2023-05-01T22:53:11.899Z,4.05
2023-05-01T22:55:39.537Z,3.85
2023-05-01T22:58:07.061Z,4.15
2023-05-01T23:00:34.120Z,3.60
2023-05-01T23:03:01.630Z,3.83
2023-05-01T23:05:29.622Z,3.72
2023-05-01T23:07:56.672Z,3.95
2023-05-01T23:10:27.197Z,3.88
2023-05-01T23:12:54.352Z,3.60
2023-05-01T23:15:26.606Z,4.03
2023-05-01T23:17:54.034Z,4.07
2023-05-01T23:20:23.802Z,4.05
2023-05-01T23:22:51.794Z,4.18
2023-05-01T23:25:25.869Z,3.60
2023-05-01T23:27:55.646Z,4.10
2023-05-01T23:30:23.160Z,4.30
2023-05-01T23:32:50.504Z,3.65
2023-05-01T23:35:24.091Z,4.05
2023-05-01T23:37:53.165Z,3.65
2023-05-01T23:40:20.292Z,3.67
2023-05-01T23:42:47.756Z,3.75
2023-05-01T23:45:15.441Z,4.07
2023-05-01T23:47:42.807Z,3.63
2023-05-01T23:50:10.399Z,4.13
2023-05-01T23:52:37.580Z,3.53
2023-05-01T23:55:04.984Z,3.63
2023-05-01T23:57:32.168Z,3.78
2023-05-01T23:59:59.504Z,3.95
